sensor_id;sensor_type;location;lat;lon;timestamp;pressure;altitude;pressure_sealevel;temperature;humidity
13767;BME280;47980;48.794;9.176;2022-11-04T00:01:19;97295.28;;;11.59;100.00
13767;BME280;47980;48.794;9.176;2022-11-04T00:03:51;97302.63;;;11.66;100.00
13767;BME280;47980;48.794;9.176;2022-11-04T00:06:23;97305.63;;;11.64;100.00
13767;BME280;47980;48.794;9.176;2022-11-04T00:08:57;97305.34;;;11.69;100.00
13767;BME280;47980;48.794;9.176;2022-11-04T00:11:29;97301.91;;;11.69;100.00
13767;BME280;47980;48.794;9.176;2022-11-04T00:14:19;97301.00;;;11.61;100.00
13767;BME280;47980;48.794;9.176;2022-11-04T00:16:50;97304.78;;;11.60;100.00
13767;BME280;47980;48.794;9.176;2022-11-04T00:19:39;97297.44;;;11.53;100.00
13767;BME280;47980;48.794;9.176;2022-11-04T00:22:41;97305.16;;;11.59;100.00
13767;BME280;47980;48.794;9.176;2022-11-04T00:25:32;97296.47;;;11.62;100.00
13767;BME280;47980;48.794;9.176;2022-11-04T00:28:21;97301.78;;;11.62;100.00
13767;BME280;47980;48.794;9.176;2022-11-04T00:31:10;97299.69;;;11.71;100.00
13767;BME280;47980;48.794;9.176;2022-11-04T00:33:59;97313.59;;;11.64;100.00
13767;BME280;47980;48.794;9.176;2022-11-04T00:36:31;97305.34;;;11.69;100.00
13767;BME280;47980;48.794;9.176;2022-11-04T00:39:02;97300.88;;;11.73;100.00
13767;BME280;47980;48.794;9.176;2022-11-04T00:41:35;97303.88;;;11.72;100.00
13767;BME280;47980;48.794;9.176;2022-11-04T00:44:07;97304.22;;;11.70;100.00
13767;BME280;47980;48.794;9.176;2022-11-04T00:46:38;97293.16;;;11.68;100.00
13767;BME280;47980;48.794;9.176;2022-11-04T00:49:10;97301.00;;;11.80;100.00
13767;BME280;47980;48.794;9.176;2022-11-04T00:51:42;97302.28;;;11.87;99.46
13767;BME280;47980;48.794;9.176;2022-11-04T00:54:14;97312.59;;;11.72;100.00
13767;BME280;47980;48.794;9.176;2022-11-04T00:56:47;97316.75;;;11.70;100.00
13767;BME280;47980;48.794;9.176;2022-11-04T00:59:18;97317.16;;;11.72;99.64
13767;BME280;47980;48.794;9.176;2022-11-04T01:01:50;97311.06;;;11.71;99.96
13767;BME280;47980;48.794;9.176;2022-11-04T01:04:21;97306.97;;;11.74;98.90
13767;BME280;47980;48.794;9.176;2022-11-04T01:06:53;97314.03;;;11.66;99.35
13767;BME280;47980;48.794;9.176;2022-11-04T01:09:24;97308.41;;;11.71;97.80
13767;BME280;47980;48.794;9.176;2022-11-04T01:11:57;97317.44;;;11.67;97.98
13767;BME280;47980;48.794;9.176;2022-11-04T01:14:30;97323.59;;;11.71;98.41
13767;BME280;47980;48.794;9.176;2022-11-04T01:17:02;97322.47;;;11.72;98.31
13767;BME280;47980;48.794;9.176;2022-11-04T01:19:33;97330.50;;;11.75;97.45
13767;BME280;47980;48.794;9.176;2022-11-04T01:22:05;97339.69;;;11.78;97.37
13767;BME280;47980;48.794;9.176;2022-11-04T01:24:37;97346.44;;;11.75;96.72
13767;BME280;47980;48.794;9.176;2022-11-04T01:27:10;97343.97;;;12.02;95.74
13767;BME280;47980;48.794;9.176;2022-11-04T01:29:42;97348.56;;;11.86;95.74
13767;BME280;47980;48.794;9.176;2022-11-04T01:32:13;97337.56;;;11.68;99.10
13767;BME280;47980;48.794;9.176;2022-11-04T01:34:45;97324.28;;;11.68;99.16
13767;BME280;47980;48.794;9.176;2022-11-04T01:37:17;97335.47;;;11.77;99.33
13767;BME280;47980;48.794;9.176;2022-11-04T01:39:48;97342.69;;;11.57;100.00
13767;BME280;47980;48.794;9.176;2022-11-04T01:42:22;97336.53;;;11.53;100.00
13767;BME280;47980;48.794;9.176;2022-11-04T01:44:55;97347.22;;;11.56;100.00
13767;BME280;47980;48.794;9.176;2022-11-04T01:47:30;97335.00;;;11.52;100.00
13767;BME280;47980;48.794;9.176;2022-11-04T01:50:06;97341.41;;;11.51;100.00
13767;BME280;47980;48.794;9.176;2022-11-04T01:52:43;97346.16;;;11.42;100.00
13767;BME280;47980;48.794;9.176;2022-11-04T01:55:18;97338.97;;;11.42;100.00
13767;BME280;47980;48.794;9.176;2022-11-04T01:57:55;97337.13;;;11.27;100.00
13767;BME280;47980;48.794;9.176;2022-11-04T02:00:28;97333.94;;;11.37;100.00
13767;BME280;47980;48.794;9.176;2022-11-04T02:03:01;97337.44;;;11.41;100.00
13767;BME280;47980;48.794;9.176;2022-11-04T02:05:34;97348.75;;;11.38;100.00
13767;BME280;47980;48.794;9.176;2022-11-04T02:08:08;97336.59;;;11.37;100.00
13767;BME280;47980;48.794;9.176;2022-11-04T02:10:50;97314.84;;;11.31;100.00
13767;BME280;47980;48.794;9.176;2022-11-04T02:13:24;97320.91;;;11.32;100.00
13767;BME280;47980;48.794;9.176;2022-11-04T02:16:00;97316.38;;;11.32;100.00
13767;BME280;47980;48.794;9.176;2022-11-04T02:18:46;97315.28;;;11.33;100.00
13767;BME280;47980;48.794;9.176;2022-11-04T02:21:48;97314.91;;;11.16;100.00
13767;BME280;47980;48.794;9.176;2022-11-04T02:27:32;97321.06;;;11.20;100.00
13767;BME280;47980;48.794;9.176;2022-11-04T02:30:10;97323.28;;;11.18;100.00
13767;BME280;47980;48.794;9.176;2022-11-04T02:33:13;97326.56;;;11.11;99.15
13767;BME280;47980;48.794;9.176;2022-11-04T02:35:53;97323.91;;;11.11;99.70
13767;BME280;47980;48.794;9.176;2022-11-04T02:38:36;97321.59;;;11.09;97.63
13767;BME280;47980;48.794;9.176;2022-11-04T02:41:14;97312.09;;;11.08;97.04
13767;BME280;47980;48.794;9.176;2022-11-04T02:43:56;97311.34;;;11.08;96.33
13767;BME280;47980;48.794;9.176;2022-11-04T02:46:36;97325.69;;;11.07;97.21
13767;BME280;47980;48.794;9.176;2022-11-04T02:49:11;97317.41;;;11.08;97.67
13767;BME280;47980;48.794;9.176;2022-11-04T02:51:46;97321.13;;;11.04;97.75
13767;BME280;47980;48.794;9.176;2022-11-04T02:54:23;97336.59;;;11.02;98.46
13767;BME280;47980;48.794;9.176;2022-11-04T02:56:57;97326.00;;;11.02;99.01
13767;BME280;47980;48.794;9.176;2022-11-04T02:59:33;97325.81;;;10.95;97.72
13767;BME280;47980;48.794;9.176;2022-11-04T03:02:10;97333.97;;;10.86;97.37
13767;BME280;47980;48.794;9.176;2022-11-04T03:04:46;97340.91;;;10.91;100.00
13767;BME280;47980;48.794;9.176;2022-11-04T03:07:23;97338.84;;;10.84;100.00
13767;BME280;47980;48.794;9.176;2022-11-04T03:09:58;97329.88;;;10.73;100.00
13767;BME280;47980;48.794;9.176;2022-11-04T03:12:37;97326.63;;;10.79;98.47
13767;BME280;47980;48.794;9.176;2022-11-04T03:15:13;97323.38;;;10.86;100.00
13767;BME280;47980;48.794;9.176;2022-11-04T03:17:54;97311.03;;;10.78;100.00
13767;BME280;47980;48.794;9.176;2022-11-04T03:20:29;97326.13;;;10.74;100.00
13767;BME280;47980;48.794;9.176;2022-11-04T03:23:02;97340.69;;;10.64;100.00
13767;BME280;47980;48.794;9.176;2022-11-04T03:25:36;97338.28;;;10.59;100.00
13767;BME280;47980;48.794;9.176;2022-11-04T03:28:19;97344.25;;;10.56;100.00
13767;BME280;47980;48.794;9.176;2022-11-04T03:30:55;97345.97;;;10.48;100.00
13767;BME280;47980;48.794;9.176;2022-11-04T03:33:35;97348.38;;;10.53;98.77
13767;BME280;47980;48.794;9.176;2022-11-04T03:36:09;97367.19;;;10.48;100.00
13767;BME280;47980;48.794;9.176;2022-11-04T03:38:41;97367.34;;;10.55;100.00
13767;BME280;47980;48.794;9.176;2022-11-04T03:41:15;97365.56;;;10.44;100.00
13767;BME280;47980;48.794;9.176;2022-11-04T03:43:48;97378.66;;;10.52;99.76
13767;BME280;47980;48.794;9.176;2022-11-04T03:46:20;97375.06;;;10.45;100.00
13767;BME280;47980;48.794;9.176;2022-11-04T03:48:54;97390.47;;;10.39;100.00
13767;BME280;47980;48.794;9.176;2022-11-04T03:51:26;97389.44;;;10.44;100.00
13767;BME280;47980;48.794;9.176;2022-11-04T03:53:58;97390.69;;;10.34;100.00
13767;BME280;47980;48.794;9.176;2022-11-04T03:56:55;97388.47;;;10.36;100.00
13767;BME280;47980;48.794;9.176;2022-11-04T03:59:44;97391.13;;;10.36;100.00
13767;BME280;47980;48.794;9.176;2022-11-04T04:02:22;97401.75;;;10.36;100.00
13767;BME280;47980;48.794;9.176;2022-11-04T04:04:58;97395.84;;;10.43;100.00
13767;BME280;47980;48.794;9.176;2022-11-04T04:07:36;97391.91;;;10.36;100.00
13767;BME280;47980;48.794;9.176;2022-11-04T04:10:15;97389.59;;;10.35;100.00
13767;BME280;47980;48.794;9.176;2022-11-04T04:13:15;97392.72;;;10.25;100.00
13767;BME280;47980;48.794;9.176;2022-11-04T04:15:52;97390.84;;;10.25;100.00
13767;BME280;47980;48.794;9.176;2022-11-04T04:18:29;97397.25;;;10.24;100.00
13767;BME280;47980;48.794;9.176;2022-11-04T04:21:06;97391.84;;;10.21;100.00
13767;BME280;47980;48.794;9.176;2022-11-04T04:23:39;97391.50;;;10.22;100.00
13767;BME280;47980;48.794;9.176;2022-11-04T04:26:32;97376.19;;;10.16;100.00
13767;BME280;47980;48.794;9.176;2022-11-04T04:29:23;97365.16;;;10.13;100.00
13767;BME280;47980;48.794;9.176;2022-11-04T04:31:56;97376.50;;;10.26;100.00
13767;BME280;47980;48.794;9.176;2022-11-04T04:34:31;97393.69;;;10.32;100.00
13767;BME280;47980;48.794;9.176;2022-11-04T04:37:07;97402.53;;;10.24;100.00
13767;BME280;47980;48.794;9.176;2022-11-04T04:39:42;97407.72;;;10.33;100.00
13767;BME280;47980;48.794;9.176;2022-11-04T04:42:32;97408.06;;;10.31;100.00
13767;BME280;47980;48.794;9.176;2022-11-04T04:45:26;97405.75;;;10.30;100.00
13767;BME280;47980;48.794;9.176;2022-11-04T04:48:00;97402.22;;;10.26;100.00
13767;BME280;47980;48.794;9.176;2022-11-04T04:50:35;97403.00;;;10.26;100.00
13767;BME280;47980;48.794;9.176;2022-11-04T04:53:09;97394.72;;;10.16;100.00
13767;BME280;47980;48.794;9.176;2022-11-04T04:55:41;97389.69;;;10.10;100.00
13767;BME280;47980;48.794;9.176;2022-11-04T04:58:13;97369.94;;;10.08;100.00
13767;BME280;47980;48.794;9.176;2022-11-04T05:00:44;97359.78;;;10.10;100.00
13767;BME280;47980;48.794;9.176;2022-11-04T05:03:16;97357.53;;;10.12;100.00
13767;BME280;47980;48.794;9.176;2022-11-04T05:05:47;97340.28;;;10.02;100.00
13767;BME280;47980;48.794;9.176;2022-11-04T05:08:20;97315.13;;;10.12;100.00
13767;BME280;47980;48.794;9.176;2022-11-04T05:10:52;97307.78;;;10.05;100.00
13767;BME280;47980;48.794;9.176;2022-11-04T05:13:24;97310.78;;;10.04;100.00
13767;BME280;47980;48.794;9.176;2022-11-04T05:16:03;97309.75;;;10.08;100.00
13767;BME280;47980;48.794;9.176;2022-11-04T05:18:35;97317.50;;;10.01;100.00
13767;BME280;47980;48.794;9.176;2022-11-04T05:21:10;97308.47;;;10.02;100.00
13767;BME280;47980;48.794;9.176;2022-11-04T05:23:43;97311.81;;;9.99;100.00
13767;BME280;47980;48.794;9.176;2022-11-04T05:26:15;97315.25;;;9.87;100.00
13767;BME280;47980;48.794;9.176;2022-11-04T05:28:47;97330.66;;;9.82;100.00
13767;BME280;47980;48.794;9.176;2022-11-04T05:31:29;97340.88;;;9.83;100.00
13767;BME280;47980;48.794;9.176;2022-11-04T05:34:00;97336.34;;;9.84;100.00
13767;BME280;47980;48.794;9.176;2022-11-04T05:36:33;97338.59;;;9.82;100.00
13767;BME280;47980;48.794;9.176;2022-11-04T05:39:10;97342.44;;;9.84;100.00
13767;BME280;47980;48.794;9.176;2022-11-04T05:41:43;97347.84;;;9.88;100.00
13767;BME280;47980;48.794;9.176;2022-11-04T05:44:14;97358.09;;;9.89;100.00
13767;BME280;47980;48.794;9.176;2022-11-04T05:46:46;97358.75;;;9.86;100.00
13767;BME280;47980;48.794;9.176;2022-11-04T05:49:18;97357.91;;;9.82;100.00
13767;BME280;47980;48.794;9.176;2022-11-04T05:51:49;97359.88;;;9.85;100.00
13767;BME280;47980;48.794;9.176;2022-11-04T05:54:22;97355.59;;;9.81;100.00
13767;BME280;47980;48.794;9.176;2022-11-04T05:56:54;97357.03;;;9.78;100.00
13767;BME280;47980;48.794;9.176;2022-11-04T05:59:26;97337.81;;;9.81;100.00
13767;BME280;47980;48.794;9.176;2022-11-04T06:01:57;97325.75;;;9.84;100.00
13767;BME280;47980;48.794;9.176;2022-11-04T06:04:29;97326.66;;;9.88;99.51
13767;BME280;47980;48.794;9.176;2022-11-04T06:07:03;97327.75;;;9.87;98.53
13767;BME280;47980;48.794;9.176;2022-11-04T06:09:36;97327.16;;;9.94;98.96
13767;BME280;47980;48.794;9.176;2022-11-04T06:12:12;97320.66;;;9.91;98.66
13767;BME280;47980;48.794;9.176;2022-11-04T06:14:44;97326.84;;;9.95;96.94
13767;BME280;47980;48.794;9.176;2022-11-04T06:17:18;97335.78;;;9.91;97.02
13767;BME280;47980;48.794;9.176;2022-11-04T06:19:50;97343.06;;;9.94;96.84
13767;BME280;47980;48.794;9.176;2022-11-04T06:22:22;97347.84;;;9.88;97.07
13767;BME280;47980;48.794;9.176;2022-11-04T06:24:55;97344.75;;;9.86;97.16
13767;BME280;47980;48.794;9.176;2022-11-04T06:27:28;97363.28;;;9.86;98.23
13767;BME280;47980;48.794;9.176;2022-11-04T06:29:59;97374.66;;;9.86;98.58
13767;BME280;47980;48.794;9.176;2022-11-04T06:32:41;97391.50;;;9.94;100.00
13767;BME280;47980;48.794;9.176;2022-11-04T06:35:13;97391.22;;;9.83;100.00
13767;BME280;47980;48.794;9.176;2022-11-04T06:37:45;97388.16;;;9.81;100.00
13767;BME280;47980;48.794;9.176;2022-11-04T06:40:18;97391.91;;;9.80;100.00
13767;BME280;47980;48.794;9.176;2022-11-04T06:43:16;97389.78;;;9.86;100.00
13767;BME280;47980;48.794;9.176;2022-11-04T06:45:52;97393.88;;;9.83;100.00
13767;BME280;47980;48.794;9.176;2022-11-04T06:48:23;97379.19;;;9.86;100.00
13767;BME280;47980;48.794;9.176;2022-11-04T06:50:55;97383.03;;;9.88;98.99
13767;BME280;47980;48.794;9.176;2022-11-04T06:53:27;97389.72;;;9.98;99.98
13767;BME280;47980;48.794;9.176;2022-11-04T06:56:02;97398.31;;;10.07;100.00
13767;BME280;47980;48.794;9.176;2022-11-04T06:58:35;97401.63;;;10.04;100.00
13767;BME280;47980;48.794;9.176;2022-11-04T07:06:20;97388.47;;;10.08;99.49
13767;BME280;47980;48.794;9.176;2022-11-04T07:08:52;97392.25;;;10.07;99.11
13767;BME280;47980;48.794;9.176;2022-11-04T07:11:27;97384.19;;;10.03;98.76
13767;BME280;47980;48.794;9.176;2022-11-04T07:14:00;97383.75;;;10.01;99.70
13767;BME280;47980;48.794;9.176;2022-11-04T07:16:31;97374.00;;;10.05;99.25
13767;BME280;47980;48.794;9.176;2022-11-04T07:19:05;97359.22;;;10.04;99.28
13767;BME280;47980;48.794;9.176;2022-11-04T07:21:37;97353.34;;;10.39;99.09
13767;BME280;47980;48.794;9.176;2022-11-04T07:24:08;97351.63;;;10.47;97.07
13767;BME280;47980;48.794;9.176;2022-11-04T07:26:41;97349.06;;;10.50;97.51
13767;BME280;47980;48.794;9.176;2022-11-04T07:29:13;97360.59;;;10.58;97.09
13767;BME280;47980;48.794;9.176;2022-11-04T07:31:45;97358.38;;;10.60;97.28
13767;BME280;47980;48.794;9.176;2022-11-04T07:34:16;97358.47;;;10.64;97.77
13767;BME280;47980;48.794;9.176;2022-11-04T07:36:48;97364.72;;;10.71;97.93
13767;BME280;47980;48.794;9.176;2022-11-04T07:39:19;97351.78;;;10.70;98.53
13767;BME280;47980;48.794;9.176;2022-11-04T07:41:52;97356.25;;;10.66;99.25
13767;BME280;47980;48.794;9.176;2022-11-04T07:44:24;97358.78;;;10.78;98.29
13767;BME280;47980;48.794;9.176;2022-11-04T07:46:56;97363.00;;;10.79;99.40
13767;BME280;47980;48.794;9.176;2022-11-04T07:49:27;97361.97;;;10.83;98.08
13767;BME280;47980;48.794;9.176;2022-11-04T07:51:59;97360.75;;;10.97;97.65
13767;BME280;47980;48.794;9.176;2022-11-04T07:54:30;97361.78;;;10.92;98.46
13767;BME280;47980;48.794;9.176;2022-11-04T07:57:03;97347.94;;;10.83;96.43
13767;BME280;47980;48.794;9.176;2022-11-04T07:59:35;97346.13;;;10.87;95.58
13767;BME280;47980;48.794;9.176;2022-11-04T08:02:06;97341.63;;;11.07;94.26
13767;BME280;47980;48.794;9.176;2022-11-04T08:04:38;97334.94;;;11.13;93.81
13767;BME280;47980;48.794;9.176;2022-11-04T08:07:10;97340.91;;;11.26;93.38
13767;BME280;47980;48.794;9.176;2022-11-04T08:09:42;97332.66;;;11.12;92.75
13767;BME280;47980;48.794;9.176;2022-11-04T08:12:15;97339.06;;;11.11;92.25
13767;BME280;47980;48.794;9.176;2022-11-04T08:14:46;97339.19;;;11.33;91.28
13767;BME280;47980;48.794;9.176;2022-11-04T08:17:18;97335.84;;;11.56;90.52
13767;BME280;47980;48.794;9.176;2022-11-04T08:19:49;97334.84;;;11.64;90.10
13767;BME280;47980;48.794;9.176;2022-11-04T08:22:21;97339.25;;;11.76;91.42
13767;BME280;47980;48.794;9.176;2022-11-04T08:24:52;97342.56;;;11.89;87.78
13767;BME280;47980;48.794;9.176;2022-11-04T08:27:25;97340.16;;;11.64;87.25
13767;BME280;47980;48.794;9.176;2022-11-04T08:29:57;97344.22;;;11.77;88.08
13767;BME280;47980;48.794;9.176;2022-11-04T08:32:28;97355.63;;;11.78;88.36
13767;BME280;47980;48.794;9.176;2022-11-04T08:35:00;97353.53;;;11.87;88.39
13767;BME280;47980;48.794;9.176;2022-11-04T08:37:31;97349.41;;;11.90;87.47
13767;BME280;47980;48.794;9.176;2022-11-04T08:40:04;97352.25;;;12.00;86.68
13767;BME280;47980;48.794;9.176;2022-11-04T08:42:37;97357.72;;;12.31;85.61
13767;BME280;47980;48.794;9.176;2022-11-04T08:45:09;97360.00;;;12.28;84.61
13767;BME280;47980;48.794;9.176;2022-11-04T08:47:40;97363.78;;;12.50;83.15
13767;BME280;47980;48.794;9.176;2022-11-04T08:50:12;97369.22;;;12.58;82.25
13767;BME280;47980;48.794;9.176;2022-11-04T08:52:43;97361.91;;;12.77;81.66
13767;BME280;47980;48.794;9.176;2022-11-04T08:55:15;97363.81;;;12.77;80.51
13767;BME280;47980;48.794;9.176;2022-11-04T08:57:48;97360.28;;;12.46;80.05
13767;BME280;47980;48.794;9.176;2022-11-04T09:00:20;97364.13;;;12.72;79.57
13767;BME280;47980;48.794;9.176;2022-11-04T09:02:52;97365.19;;;12.67;78.59
13767;BME280;47980;48.794;9.176;2022-11-04T09:05:25;97374.41;;;12.73;78.95
13767;BME280;47980;48.794;9.176;2022-11-04T09:07:57;97364.78;;;12.42;79.52
13767;BME280;47980;48.794;9.176;2022-11-04T09:10:30;97368.09;;;12.36;80.78
13767;BME280;47980;48.794;9.176;2022-11-04T09:13:03;97377.91;;;12.32;80.59
13767;BME280;47980;48.794;9.176;2022-11-04T09:15:35;97370.81;;;11.97;82.20
13767;BME280;47980;48.794;9.176;2022-11-04T09:18:07;97383.97;;;12.09;82.83
13767;BME280;47980;48.794;9.176;2022-11-04T09:20:40;97390.56;;;12.38;79.91
13767;BME280;47980;48.794;9.176;2022-11-04T09:23:12;97392.09;;;12.20;78.82
13767;BME280;47980;48.794;9.176;2022-11-04T09:25:50;97397.28;;;12.32;79.47
13767;BME280;47980;48.794;9.176;2022-11-04T09:28:23;97385.56;;;12.37;78.92
13767;BME280;47980;48.794;9.176;2022-11-04T09:30:55;97392.34;;;12.53;78.68
13767;BME280;47980;48.794;9.176;2022-11-04T09:33:26;97384.94;;;12.89;77.63
13767;BME280;47980;48.794;9.176;2022-11-04T09:35:58;97386.28;;;12.80;79.02
13767;BME280;47980;48.794;9.176;2022-11-04T09:38:30;97374.06;;;12.75;75.24
13767;BME280;47980;48.794;9.176;2022-11-04T09:41:08;97385.63;;;12.40;75.80
13767;BME280;47980;48.794;9.176;2022-11-04T09:43:47;97383.59;;;12.53;75.45
13767;BME280;47980;48.794;9.176;2022-11-04T09:46:23;97388.00;;;12.91;74.43
13767;BME280;47980;48.794;9.176;2022-11-04T09:49:02;97396.75;;;12.92;74.78
13767;BME280;47980;48.794;9.176;2022-11-04T09:51:35;97390.75;;;12.98;74.35
13767;BME280;47980;48.794;9.176;2022-11-04T09:54:13;97381.31;;;13.58;72.46
13767;BME280;47980;48.794;9.176;2022-11-04T09:56:48;97379.41;;;13.28;70.35
13767;BME280;47980;48.794;9.176;2022-11-04T09:59:26;97369.72;;;13.73;70.88
13767;BME280;47980;48.794;9.176;2022-11-04T10:02:21;97372.41;;;13.73;71.17
13767;BME280;47980;48.794;9.176;2022-11-04T10:05:03;97361.34;;;13.75;70.85
13767;BME280;47980;48.794;9.176;2022-11-04T10:07:49;97364.31;;;14.00;67.65
13767;BME280;47980;48.794;9.176;2022-11-04T10:10:32;97369.47;;;13.52;68.60
13767;BME280;47980;48.794;9.176;2022-11-04T10:13:19;97366.00;;;13.47;68.95
13767;BME280;47980;48.794;9.176;2022-11-04T10:16:13;97364.09;;;13.82;69.02
13767;BME280;47980;48.794;9.176;2022-11-04T10:18:58;97362.47;;;13.70;67.66
13767;BME280;47980;48.794;9.176;2022-11-04T10:24:35;97351.78;;;13.70;70.85
13767;BME280;47980;48.794;9.176;2022-11-04T10:27:14;97359.06;;;13.73;68.74
13767;BME280;47980;48.794;9.176;2022-11-04T10:29:49;97353.88;;;13.54;69.31
13767;BME280;47980;48.794;9.176;2022-11-04T10:32:28;97348.81;;;13.45;69.03
13767;BME280;47980;48.794;9.176;2022-11-04T10:35:05;97351.06;;;13.73;69.73
13767;BME280;47980;48.794;9.176;2022-11-04T10:37:44;97352.66;;;13.78;68.63
13767;BME280;47980;48.794;9.176;2022-11-04T10:40:22;97353.88;;;13.84;69.51
13767;BME280;47980;48.794;9.176;2022-11-04T10:42:57;97348.22;;;13.92;67.04
13767;BME280;47980;48.794;9.176;2022-11-04T10:45:36;97350.06;;;13.85;66.58
13767;BME280;47980;48.794;9.176;2022-11-04T10:48:15;97341.78;;;13.60;67.54
13767;BME280;47980;48.794;9.176;2022-11-04T10:50:52;97345.03;;;13.46;66.07
13767;BME280;47980;48.794;9.176;2022-11-04T10:53:27;97332.16;;;13.52;66.44
13767;BME280;47980;48.794;9.176;2022-11-04T10:56:03;97338.44;;;13.36;68.33
13767;BME280;47980;48.794;9.176;2022-11-04T10:58:40;97340.66;;;13.31;68.33
13767;BME280;47980;48.794;9.176;2022-11-04T11:01:25;97333.91;;;13.70;68.38
13767;BME280;47980;48.794;9.176;2022-11-04T11:03:59;97338.81;;;13.68;67.43
13767;BME280;47980;48.794;9.176;2022-11-04T11:06:32;97333.38;;;13.91;67.46
13767;BME280;47980;48.794;9.176;2022-11-04T11:09:12;97333.09;;;13.66;67.37
13767;BME280;47980;48.794;9.176;2022-11-04T11:11:46;97331.34;;;13.81;67.39
13767;BME280;47980;48.794;9.176;2022-11-04T11:14:30;97337.91;;;13.87;67.83
13767;BME280;47980;48.794;9.176;2022-11-04T11:17:20;97327.56;;;13.82;66.87
13767;BME280;47980;48.794;9.176;2022-11-04T11:19:58;97334.28;;;13.69;68.10
13767;BME280;47980;48.794;9.176;2022-11-04T11:22:35;97326.19;;;13.62;69.14
13767;BME280;47980;48.794;9.176;2022-11-04T11:25:20;97322.72;;;13.91;67.26
13767;BME280;47980;48.794;9.176;2022-11-04T11:27:55;97316.66;;;13.94;68.69
13767;BME280;47980;48.794;9.176;2022-11-04T11:30:28;97319.72;;;13.63;67.66
13767;BME280;47980;48.794;9.176;2022-11-04T11:33:03;97311.91;;;13.77;67.99
13767;BME280;47980;48.794;9.176;2022-11-04T11:35:40;97311.72;;;13.29;66.77
13767;BME280;47980;48.794;9.176;2022-11-04T11:38:17;97309.47;;;13.65;67.61
13767;BME280;47980;48.794;9.176;2022-11-04T11:40:53;97306.97;;;13.83;67.35
13767;BME280;47980;48.794;9.176;2022-11-04T11:43:35;97301.72;;;13.90;65.93
13767;BME280;47980;48.794;9.176;2022-11-04T11:46:09;97298.88;;;13.72;65.58
13767;BME280;47980;48.794;9.176;2022-11-04T11:48:42;97293.84;;;14.01;66.01
13767;BME280;47980;48.794;9.176;2022-11-04T11:51:23;97296.31;;;14.20;65.18
13767;BME280;47980;48.794;9.176;2022-11-04T11:54:13;97293.25;;;14.18;65.04
13767;BME280;47980;48.794;9.176;2022-11-04T11:56:47;97296.16;;;13.68;65.40
13767;BME280;47980;48.794;9.176;2022-11-04T11:59:34;97296.31;;;14.20;65.22
13767;BME280;47980;48.794;9.176;2022-11-04T12:02:24;97303.88;;;14.14;65.17
13767;BME280;47980;48.794;9.176;2022-11-04T12:04:58;97293.41;;;14.39;65.27
13767;BME280;47980;48.794;9.176;2022-11-04T12:07:39;97285.78;;;14.41;63.56
13767;BME280;47980;48.794;9.176;2022-11-04T12:10:22;97288.81;;;14.36;63.05
13767;BME280;47980;48.794;9.176;2022-11-04T12:13:04;97284.16;;;14.78;63.42
13767;BME280;47980;48.794;9.176;2022-11-04T12:15:52;97289.78;;;14.58;62.49
13767;BME280;47980;48.794;9.176;2022-11-04T12:18:38;97293.31;;;14.73;61.33
13767;BME280;47980;48.794;9.176;2022-11-04T12:21:14;97293.25;;;14.66;61.61
13767;BME280;47980;48.794;9.176;2022-11-04T12:23:53;97296.66;;;14.63;63.34
13767;BME280;47980;48.794;9.176;2022-11-04T12:26:32;97285.91;;;14.52;63.90
13767;BME280;47980;48.794;9.176;2022-11-04T12:29:31;97287.06;;;14.55;62.00
13767;BME280;47980;48.794;9.176;2022-11-04T12:32:13;97297.38;;;14.53;62.85
13767;BME280;47980;48.794;9.176;2022-11-04T12:34:56;97301.25;;;14.62;62.12
13767;BME280;47980;48.794;9.176;2022-11-04T12:37:42;97298.50;;;14.52;62.41
13767;BME280;47980;48.794;9.176;2022-11-04T12:40:20;97301.75;;;14.31;64.02
13767;BME280;47980;48.794;9.176;2022-11-04T12:43:02;97308.19;;;14.30;63.96
13767;BME280;47980;48.794;9.176;2022-11-04T12:45:46;97302.13;;;13.92;63.77
13767;BME280;47980;48.794;9.176;2022-11-04T12:48:33;97300.44;;;14.14;63.17
13767;BME280;47980;48.794;9.176;2022-11-04T12:51:12;97302.81;;;14.67;62.34
13767;BME280;47980;48.794;9.176;2022-11-04T12:56:59;97301.19;;;15.17;60.10
13767;BME280;47980;48.794;9.176;2022-11-04T12:59:51;97313.41;;;15.15;60.18
13767;BME280;47980;48.794;9.176;2022-11-04T13:02:30;97315.63;;;15.02;62.18
13767;BME280;47980;48.794;9.176;2022-11-04T13:05:07;97317.94;;;15.07;61.96
13767;BME280;47980;48.794;9.176;2022-11-04T13:07:51;97321.00;;;15.09;60.41
13767;BME280;47980;48.794;9.176;2022-11-04T13:10:27;97324.06;;;15.08;60.14
13767;BME280;47980;48.794;9.176;2022-11-04T13:13:05;97324.41;;;15.06;60.99
13767;BME280;47980;48.794;9.176;2022-11-04T13:15:43;97323.16;;;14.86;60.25
13767;BME280;47980;48.794;9.176;2022-11-04T13:18:18;97328.94;;;14.47;61.02
13767;BME280;47980;48.794;9.176;2022-11-04T13:20:53;97327.16;;;14.62;59.87
13767;BME280;47980;48.794;9.176;2022-11-04T13:23:33;97331.47;;;14.33;61.76
13767;BME280;47980;48.794;9.176;2022-11-04T13:26:10;97320.31;;;14.61;61.70
13767;BME280;47980;48.794;9.176;2022-11-04T13:28:49;97321.06;;;14.61;61.06
13767;BME280;47980;48.794;9.176;2022-11-04T13:31:33;97328.59;;;14.52;61.04
13767;BME280;47980;48.794;9.176;2022-11-04T13:34:13;97331.06;;;14.72;61.06
13767;BME280;47980;48.794;9.176;2022-11-04T13:36:51;97334.00;;;14.59;61.18
13767;BME280;47980;48.794;9.176;2022-11-04T13:39:26;97327.09;;;14.51;61.53
13767;BME280;47980;48.794;9.176;2022-11-04T13:42:15;97344.91;;;14.03;63.80
13767;BME280;47980;48.794;9.176;2022-11-04T13:44:53;97342.47;;;14.24;64.96
13767;BME280;47980;48.794;9.176;2022-11-04T13:47:31;97343.91;;;14.18;66.10
13767;BME280;47980;48.794;9.176;2022-11-04T13:50:25;97348.66;;;13.64;72.16
13767;BME280;47980;48.794;9.176;2022-11-04T13:52:58;97346.47;;;13.13;77.40
13767;BME280;47980;48.794;9.176;2022-11-04T13:55:30;97350.94;;;12.56;82.82
13767;BME280;47980;48.794;9.176;2022-11-04T13:58:03;97360.09;;;12.36;86.32
13767;BME280;47980;48.794;9.176;2022-11-04T14:00:37;97369.97;;;11.93;85.54